Athol, Idaho
Current Conditions -  °F | °C
As of 3:55 AM on Friday 19 Dec 2014 (Local Time) from KCOE Reporting Station
Overcast Overcast  
Wind Chill: 34°   Ceiling: 2600
Heat Index: 37°   Visibility: 5mi
Dew Point: 34°   Wind: 5mph
Humidity: 87%   Direction: 20°NNE
Pressure: 29.88"   Gusts: NA
Location:  47.95°N, 116.71°W
Report Text: KCOE 191155Z AUTO 02004KT 5SM BKN026 OVC045 03/01 A2988 RMK AO1 P0001 60001 70001 10030 20020 57014
Loading
Personal Weather Stations






























Interactive Weather Map New forecast layout! Learn more

10-Day Weather Forecast

Advertisements
Track Severe Weather on mobile